createdAt,value
2017-05-07T00:00:02.458Z,94.26
2017-05-07T00:00:15.582Z,94.16
2017-05-07T00:00:28.176Z,94.35
2017-05-07T00:00:40.828Z,94.54
2017-05-07T00:00:53.464Z,94.26
2017-05-07T00:01:06.109Z,94.16
2017-05-07T00:01:19.234Z,93.97
2017-05-07T00:01:32.423Z,93.97
2017-05-07T00:01:45.564Z,94.07
2017-05-07T00:01:58.723Z,93.97
2017-05-07T00:02:11.900Z,94.45
2017-05-07T00:02:24.502Z,93.97
2017-05-07T00:02:37.133Z,94.16
2017-05-07T00:02:50.279Z,94.16
2017-05-07T00:03:03.425Z,94.16
2017-05-07T00:03:16.608Z,94.16
2017-05-07T00:03:28.772Z,94.07
2017-05-07T00:03:41.424Z,94.26
2017-05-07T00:03:54.528Z,94.16
2017-05-07T00:04:07.701Z,94.35
2017-05-07T00:04:20.271Z,94.26
2017-05-07T00:04:33.488Z,94.16
2017-05-07T00:04:46.407Z,94.16
2017-05-07T00:04:59.528Z,94.26
2017-05-07T00:05:12.657Z,94.16
2017-05-07T00:05:25.814Z,94.16
2017-05-07T00:05:38.473Z,94.16
2017-05-07T00:05:51.594Z,94.16
2017-05-07T00:06:04.744Z,93.59
2017-05-07T00:06:17.327Z,93.68
2017-05-07T00:06:30.487Z,93.97
2017-05-07T00:06:43.576Z,93.97
2017-05-07T00:06:56.763Z,94.26
2017-05-07T00:07:09.916Z,94.35
2017-05-07T00:07:23.050Z,93.97
2017-05-07T00:07:36.244Z,93.97
2017-05-07T00:07:49.368Z,94.35
2017-05-07T00:08:01.954Z,93.97
2017-05-07T00:08:14.595Z,93.77
2017-05-07T00:08:27.239Z,94.35
2017-05-07T00:08:40.382Z,94.07
2017-05-07T00:08:53.533Z,94.16
2017-05-07T00:09:06.698Z,94.16
2017-05-07T00:09:19.339Z,93.49
2017-05-07T00:09:31.976Z,93.49
2017-05-07T00:09:45.150Z,93.97
2017-05-07T00:09:57.875Z,93.97
2017-05-07T00:10:10.529Z,93.77
2017-05-07T00:10:22.661Z,94.16
2017-05-07T00:10:35.236Z,93.97
2017-05-07T00:10:48.374Z,94.16
2017-05-07T00:11:01.053Z,94.26
2017-05-07T00:11:14.209Z,93.77
2017-05-07T00:11:27.363Z,94.07
2017-05-07T00:11:40.454Z,93.87
2017-05-07T00:11:52.600Z,93.59
2017-05-07T00:12:05.743Z,93.77
2017-05-07T00:12:18.853Z,94.07
2017-05-07T00:12:32.043Z,93.77
2017-05-07T00:12:45.217Z,94.07
2017-05-07T00:12:58.319Z,93.97
2017-05-07T00:13:10.984Z,94.16
2017-05-07T00:13:23.684Z,94.16
2017-05-07T00:13:36.795Z,94.07
2017-05-07T00:13:49.957Z,93.68
2017-05-07T00:14:03.039Z,93.97
2017-05-07T00:14:15.634Z,93.49
2017-05-07T00:14:28.733Z,93.77
2017-05-07T00:14:41.872Z,94.4
2017-05-07T00:14:55.001Z,93.87
2017-05-07T00:15:08.193Z,94.07
2017-05-07T00:15:20.831Z,94.26
2017-05-07T00:15:33.440Z,94.07
2017-05-07T00:15:47.202Z,93.77
2017-05-07T00:15:59.889Z,93.97
2017-05-07T00:16:13.039Z,93.87
2017-05-07T00:16:26.206Z,93.77
2017-05-07T00:16:39.337Z,93.97
2017-05-07T00:16:52.515Z,93.77
2017-05-07T00:17:05.652Z,94.26
2017-05-07T00:17:18.343Z,94.35
2017-05-07T00:17:31.478Z,93.68
2017-05-07T00:17:44.167Z,94.45
2017-05-07T00:17:57.315Z,94.16
2017-05-07T00:18:09.972Z,94.16
2017-05-07T00:18:22.561Z,94.35
2017-05-07T00:18:35.195Z,93.77
2017-05-07T00:18:48.345Z,93.97
2017-05-07T00:19:01.457Z,93.68
2017-05-07T00:19:14.553Z,93.68
2017-05-07T00:19:27.643Z,94.07
2017-05-07T00:19:40.752Z,94.07
2017-05-07T00:19:53.598Z,93.97
2017-05-07T00:20:06.753Z,93.68
2017-05-07T00:20:19.905Z,93.77
2017-05-07T00:20:32.546Z,93.59
2017-05-07T00:20:45.634Z,93.97
2017-05-07T00:20:58.739Z,94.16
2017-05-07T00:21:11.867Z,93.97
2017-05-07T00:21:24.040Z,93.97
2017-05-07T00:21:37.162Z,93.97
2017-05-07T00:21:50.321Z,93.97
2017-05-07T00:22:03.491Z,94.45
2017-05-07T00:22:16.678Z,94.26
2017-05-07T00:22:28.253Z,94.07
2017-05-07T00:22:40.914Z,94.26
2017-05-07T00:22:53.565Z,94.07
2017-05-07T00:23:06.703Z,93.97
2017-05-07T00:23:18.789Z,94.16
2017-05-07T00:23:31.890Z,94.35
2017-05-07T00:23:45.045Z,93.68
2017-05-07T00:23:57.753Z,93.87
2017-05-07T00:24:10.431Z,94.35
2017-05-07T00:24:22.578Z,94.16
2017-05-07T00:24:35.662Z,94.16
2017-05-07T00:24:48.809Z,94.16
2017-05-07T00:25:01.922Z,94.26
2017-05-07T00:25:15.005Z,94.16
2017-05-07T00:25:28.121Z,94.07
2017-05-07T00:25:41.231Z,94.35
2017-05-07T00:25:53.834Z,94.45
2017-05-07T00:26:07.031Z,94.16
2017-05-07T00:26:19.659Z,94.16
2017-05-07T00:26:32.803Z,93.97
2017-05-07T00:26:45.923Z,94.07
2017-05-07T00:26:59.108Z,94.26
2017-05-07T00:27:11.749Z,94.07
2017-05-07T00:27:24.891Z,94.16
2017-05-07T00:27:38.068Z,94.26
2017-05-07T00:27:51.253Z,94.26
2017-05-07T00:28:03.883Z,93.97
2017-05-07T00:28:15.973Z,94.16
2017-05-07T00:28:29.105Z,94.16
2017-05-07T00:28:42.250Z,94.16
2017-05-07T00:28:55.420Z,94.16
2017-05-07T00:29:08.076Z,94.07
2017-05-07T00:29:21.179Z,94.07
2017-05-07T00:29:33.838Z,94.16
2017-05-07T00:29:46.912Z,94.26
2017-05-07T00:29:59.500Z,94.16
2017-05-07T00:30:12.626Z,94.16
2017-05-07T00:30:25.308Z,94.26
2017-05-07T00:30:38.503Z,94.07
2017-05-07T00:30:52.377Z,94.16
2017-05-07T00:31:05.505Z,94.16
2017-05-07T00:31:18.138Z,94.07
2017-05-07T00:31:31.275Z,94.16
2017-05-07T00:31:44.430Z,94.16
2017-05-07T00:31:57.584Z,94.26
2017-05-07T00:32:09.783Z,94.16
2017-05-07T00:32:22.423Z,94.26
2017-05-07T00:32:35.091Z,93.97
2017-05-07T00:32:48.353Z,93.97
2017-05-07T00:33:01.505Z,93.97
2017-05-07T00:33:14.767Z,94.16
2017-05-07T00:33:27.928Z,93.68
2017-05-07T00:33:41.105Z,94.35
2017-05-07T00:33:53.778Z,94.26
2017-05-07T00:34:07.013Z,94.26
2017-05-07T00:34:20.136Z,94.16
2017-05-07T00:34:33.293Z,94.35
2017-05-07T00:34:46.406Z,94.16
2017-05-07T00:34:59.873Z,94.26
2017-05-07T00:35:12.478Z,94.35
2017-05-07T00:35:25.155Z,94.26
2017-05-07T00:35:38.324Z,94.16
2017-05-07T00:35:51.007Z,94.16
2017-05-07T00:36:04.169Z,94.16
2017-05-07T00:36:16.855Z,94.16
2017-05-07T00:36:29.570Z,93.97
2017-05-07T00:36:42.709Z,94.16
2017-05-07T00:36:55.914Z,94.26
2017-05-07T00:37:09.359Z,94.26
2017-05-07T00:37:22.504Z,94.07
2017-05-07T00:37:35.625Z,94.26
2017-05-07T00:37:48.825Z,94.16
2017-05-07T00:38:02.211Z,93.77
2017-05-07T00:38:14.898Z,94.35
2017-05-07T00:38:28.096Z,94.16
2017-05-07T00:38:41.492Z,93.97
2017-05-07T00:38:54.662Z,94.35
2017-05-07T00:39:08.447Z,93.97
2017-05-07T00:39:21.613Z,93.97
2017-05-07T00:39:34.729Z,94.16
2017-05-07T00:39:47.900Z,94.07
2017-05-07T00:40:01.047Z,94.16
2017-05-07T00:40:14.192Z,94.16
2017-05-07T00:40:26.920Z,94.26
2017-05-07T00:40:40.856Z,94.35
2017-05-07T00:40:53.492Z,94.26
2017-05-07T00:41:06.716Z,94.16
2017-05-07T00:41:24.452Z,94.16
2017-05-07T00:41:38.384Z,93.97
2017-05-07T00:42:35.039Z,94.16
2017-05-07T00:43:19.593Z,94.26
2017-05-07T00:43:32.505Z,93.97
2017-05-07T00:43:52.714Z,93.97
2017-05-07T00:44:58.913Z,94.26
2017-05-07T00:45:12.087Z,94.35
2017-05-07T00:45:24.264Z,93.97
2017-05-07T00:45:37.900Z,93.97
2017-05-07T00:45:51.051Z,94.16
2017-05-07T00:46:03.633Z,93.97
2017-05-07T00:46:16.358Z,93.68
2017-05-07T00:46:31.013Z,93.77
2017-05-07T00:46:43.755Z,93.68
2017-05-07T00:46:56.937Z,94.16
2017-05-07T00:47:10.990Z,93.97
2017-05-07T00:47:23.681Z,93.97
2017-05-07T00:47:36.426Z,94.54
2017-05-07T00:47:49.633Z,94.35
2017-05-07T00:48:02.853Z,94.54
2017-05-07T00:48:15.544Z,94.35
2017-05-07T00:48:28.262Z,94.16
2017-05-07T00:48:41.554Z,93.77
2017-05-07T00:48:54.800Z,93.87
2017-05-07T00:49:08.059Z,94.07
2017-05-07T00:49:20.186Z,93.68
2017-05-07T00:49:32.795Z,94.16
2017-05-07T00:49:44.929Z,94.16
2017-05-07T00:49:58.084Z,94.21
2017-05-07T00:50:11.513Z,94.16
2017-05-07T00:50:24.655Z,93.77
2017-05-07T00:50:37.838Z,93.97
2017-05-07T00:50:51.192Z,93.68
2017-05-07T00:51:04.428Z,93.87
2017-05-07T00:51:17.604Z,93.68
2017-05-07T00:51:31.010Z,94.16
2017-05-07T00:51:44.169Z,93.68
2017-05-07T00:51:56.847Z,93.87
2017-05-07T00:52:10.072Z,93.73
2017-05-07T00:52:23.895Z,93.77
2017-05-07T00:52:36.064Z,93.77
2017-05-07T00:52:51.242Z,93.59
2017-05-07T00:53:04.365Z,93.97
2017-05-07T00:53:17.004Z,93.77
2017-05-07T00:53:30.163Z,93.87
2017-05-07T00:53:42.828Z,93.49
2017-05-07T00:53:56.622Z,93.59
2017-05-07T00:54:09.870Z,93.39
2017-05-07T00:54:25.482Z,93.54
2017-05-07T00:54:38.675Z,93.87
2017-05-07T00:54:51.907Z,93.87
2017-05-07T00:55:05.140Z,93.82
2017-05-07T00:55:18.265Z,93.87
2017-05-07T00:55:30.952Z,93.87
2017-05-07T00:55:44.146Z,93.73
2017-05-07T00:55:57.389Z,93.73
2017-05-07T00:56:10.772Z,93.59
2017-05-07T00:56:24.987Z,93.63
2017-05-07T00:56:38.162Z,93.73
2017-05-07T00:56:50.929Z,93.59
2017-05-07T00:57:04.154Z,93.68
2017-05-07T00:57:16.870Z,93.59
2017-05-07T00:57:30.090Z,93.44
2017-05-07T00:57:43.197Z,93.49
2017-05-07T00:57:56.356Z,93.87
2017-05-07T00:58:08.578Z,93.49
2017-05-07T00:58:24.529Z,93.54
2017-05-07T00:58:37.916Z,93.87
2017-05-07T00:58:51.165Z,93.44
2017-05-07T00:59:04.306Z,93.54
2017-05-07T00:59:16.476Z,94.02
2017-05-07T00:59:29.678Z,93.44
2017-05-07T00:59:42.847Z,93.44
2017-05-07T00:59:55.985Z,93.97
2017-05-07T01:00:09.917Z,93.92
2017-05-07T01:00:23.075Z,93.73
2017-05-07T01:00:36.407Z,94.07
2017-05-07T01:00:49.460Z,94.16
2017-05-07T01:01:02.129Z,94.12
2017-05-07T01:01:14.263Z,93.92
2017-05-07T01:01:28.429Z,93.54
2017-05-07T01:01:41.686Z,93.54
2017-05-07T01:02:01.871Z,93.44
2017-05-07T01:02:14.726Z,93.63
2017-05-07T01:02:27.917Z,93.54
2017-05-07T01:02:41.917Z,93.63
2017-05-07T01:02:56.560Z,93.54
2017-05-07T01:03:12.845Z,93.54
2017-05-07T01:03:26.454Z,93.63
2017-05-07T01:03:40.445Z,93.73
2017-05-07T01:03:54.536Z,93.44
2017-05-07T01:04:07.683Z,94.02
2017-05-07T01:04:20.341Z,93.82
2017-05-07T01:04:33.821Z,93.73
2017-05-07T01:04:47.618Z,93.44
2017-05-07T01:05:05.301Z,93.25
2017-05-07T01:05:18.878Z,93.63
2017-05-07T01:05:32.055Z,93.35
2017-05-07T01:05:45.216Z,93.44
2017-05-07T01:05:58.363Z,93.73
2017-05-07T01:06:10.512Z,93.35
2017-05-07T01:06:23.115Z,93.44
2017-05-07T01:06:36.276Z,93.44
2017-05-07T01:06:49.657Z,93.73
2017-05-07T01:07:02.841Z,93.63
2017-05-07T01:07:15.038Z,93.35
2017-05-07T01:07:27.662Z,92.96
2017-05-07T01:07:40.782Z,93.15
2017-05-07T01:07:53.478Z,92.96
2017-05-07T01:08:12.344Z,93.44
2017-05-07T01:08:26.192Z,93.73
2017-05-07T01:08:39.437Z,93.35
2017-05-07T01:08:54.007Z,93.06
2017-05-07T01:09:07.168Z,93.15
2017-05-07T01:09:20.319Z,93.25
2017-05-07T01:09:53.301Z,93.25
2017-05-07T01:10:31.166Z,92.96
2017-05-07T01:10:47.510Z,93.15
2017-05-07T01:11:03.499Z,93.44
2017-05-07T01:11:16.667Z,92.77
2017-05-07T01:11:29.254Z,93.44
2017-05-07T01:11:42.610Z,92.96
2017-05-07T01:11:55.768Z,93.25
2017-05-07T01:12:10.163Z,93.25
2017-05-07T01:12:22.629Z,93.44
2017-05-07T01:12:35.846Z,93.25
2017-05-07T01:12:49.140Z,93.25
2017-05-07T01:13:02.575Z,92.86
2017-05-07T01:13:16.751Z,93.44
2017-05-07T01:13:30.670Z,93.06
2017-05-07T01:13:43.841Z,92.96
2017-05-07T01:13:57.109Z,93.35
2017-05-07T01:14:10.194Z,93.44
2017-05-07T01:14:22.892Z,92.86
2017-05-07T01:14:36.038Z,92.96
2017-05-07T01:14:51.830Z,92.96
2017-05-07T01:15:11.743Z,93.15
2017-05-07T01:15:28.911Z,92.96
2017-05-07T01:15:49.862Z,92.77
2017-05-07T01:16:04.286Z,92.96
2017-05-07T01:16:17.782Z,92.96
2017-05-07T01:16:37.192Z,92.96
2017-05-07T01:16:51.220Z,92.77
2017-05-07T01:17:05.243Z,93.06
2017-05-07T01:17:27.436Z,93.25
2017-05-07T01:17:57.152Z,92.96
2017-05-07T01:18:12.621Z,92.96
2017-05-07T01:18:25.289Z,93.25
2017-05-07T01:18:39.728Z,93.15
2017-05-07T01:18:52.609Z,92.86
2017-05-07T01:19:05.317Z,92.77
2017-05-07T01:19:18.024Z,92.86
2017-05-07T01:19:36.224Z,92.77
2017-05-07T01:19:49.508Z,92.86
2017-05-07T01:20:34.630Z,92.86
2017-05-07T01:20:49.825Z,92.68
2017-05-07T01:21:02.952Z,92.86
2017-05-07T01:21:16.440Z,92.86
2017-05-07T01:22:02.675Z,92.68
2017-05-07T01:22:26.414Z,92.68
2017-05-07T01:22:39.541Z,92.77
2017-05-07T01:22:53.005Z,92.68
2017-05-07T01:23:16.772Z,92.68
2017-05-07T01:23:30.732Z,92.86
2017-05-07T01:24:15.067Z,92.86
2017-05-07T01:24:58.840Z,92.48
2017-05-07T01:25:26.056Z,92.77
2017-05-07T01:25:50.203Z,92.68
2017-05-07T01:26:06.574Z,92.68
2017-05-07T01:26:38.905Z,92.58
2017-05-07T01:27:48.317Z,92.48
2017-05-07T01:28:03.465Z,92.48
2017-05-07T01:28:15.633Z,92.77
2017-05-07T01:28:28.286Z,92.77
2017-05-07T01:28:47.215Z,92.58
2017-05-07T01:29:03.649Z,92.68
2017-05-07T01:29:49.952Z,92.68
2017-05-07T01:30:06.172Z,92.58
2017-05-07T01:30:55.484Z,92.39
2017-05-07T01:31:09.826Z,92.39
2017-05-07T01:31:22.619Z,92.58
2017-05-07T01:32:32.980Z,92.48
2017-05-07T01:32:58.233Z,92.68
2017-05-07T01:33:14.903Z,92.39
2017-05-07T01:33:51.221Z,92.48
2017-05-07T01:34:04.295Z,92.68
2017-05-07T01:35:34.599Z,92.48
2017-05-07T01:35:58.423Z,92.77
2017-05-07T01:36:11.630Z,92.68
2017-05-07T01:36:59.831Z,92.48
2017-05-07T01:37:14.906Z,92.48
2017-05-07T01:37:57.545Z,92.48
2017-05-07T01:38:11.465Z,92.58
2017-05-07T01:38:27.618Z,92.48
2017-05-07T01:38:47.292Z,92.68
2017-05-07T01:40:12.483Z,92.39
2017-05-07T01:40:56.536Z,92.68
2017-05-07T01:41:40.886Z,92.68
2017-05-07T01:42:26.177Z,92.48
2017-05-07T01:42:39.726Z,92.48
2017-05-07T01:44:10.492Z,92.68
2017-05-07T01:44:26.256Z,92.68
2017-05-07T01:44:46.796Z,92.86
2017-05-07T01:45:31.306Z,92.58
2017-05-07T01:46:34.379Z,92.68
2017-05-07T01:47:18.203Z,92.48
2017-05-07T01:47:45.295Z,92.68
2017-05-07T01:49:00.793Z,92.39
2017-05-07T01:51:39.918Z,92.48
2017-05-07T01:52:45.299Z,92.58
2017-05-07T01:54:03.895Z,92.39
2017-05-07T01:54:17.041Z,92.77
2017-05-07T01:55:26.522Z,92.58
2017-05-07T01:56:10.630Z,92.58
2017-05-07T01:57:39.119Z,92.48
2017-05-07T01:58:47.446Z,92.48
2017-05-07T01:59:56.865Z,92.77
2017-05-07T02:00:45.215Z,92.58
2017-05-07T02:00:59.849Z,92.29
2017-05-07T02:02:15.581Z,92.39
2017-05-07T02:03:06.578Z,92.39
2017-05-07T02:04:26.859Z,92.39
2017-05-07T02:05:42.535Z,92.29
2017-05-07T02:06:26.833Z,92.29
2017-05-07T02:07:58.993Z,92.48
2017-05-07T02:09:45.717Z,92.29
2017-05-07T02:10:29.993Z,92.19
2017-05-07T02:11:13.800Z,92.19
2017-05-07T02:11:37.130Z,92
2017-05-07T02:12:15.744Z,91.91
2017-05-07T02:12:28.927Z,92.1
2017-05-07T02:13:09.396Z,91.91
2017-05-07T02:13:28.169Z,91.91
2017-05-07T02:13:41.256Z,92
2017-05-07T02:13:54.338Z,92.1
2017-05-07T02:14:46.415Z,92.1
2017-05-07T02:14:59.569Z,92
2017-05-07T02:15:15.261Z,92.29
2017-05-07T02:16:32.260Z,91.91
2017-05-07T02:16:45.408Z,91.81
2017-05-07T02:17:00.020Z,92.19
2017-05-07T02:17:14.605Z,92.19
2017-05-07T02:17:50.083Z,91.62
2017-05-07T02:18:03.247Z,91.72
2017-05-07T02:19:38.799Z,91.72
2017-05-07T02:22:18.597Z,91.72
2017-05-07T02:22:33.657Z,91.72
2017-05-07T02:22:58.611Z,91.62
2017-05-07T02:24:14.354Z,91.72
2017-05-07T02:24:32.177Z,92.19
2017-05-07T02:24:58.041Z,91.81
2017-05-07T02:25:19.333Z,92.29
2017-05-07T02:25:42.141Z,91.62
2017-05-07T02:26:09.858Z,92.29
2017-05-07T02:26:23.008Z,91.91
2017-05-07T02:26:36.154Z,91.91
2017-05-07T02:26:52.845Z,92.1
2017-05-07T02:27:07.209Z,91.91
2017-05-07T02:27:22.377Z,91.81
2017-05-07T02:27:35.887Z,92.19
2017-05-07T02:27:52.104Z,91.72
2017-05-07T02:28:10.669Z,91.91
2017-05-07T02:28:23.815Z,91.91
2017-05-07T02:28:40.903Z,92.1
2017-05-07T02:28:54.140Z,91.72
2017-05-07T02:29:29.897Z,91.91
2017-05-07T02:30:28.514Z,91.81
2017-05-07T02:30:41.703Z,91.91
2017-05-07T02:30:54.828Z,91.62
2017-05-07T02:31:17.780Z,91.24
2017-05-07T02:31:30.938Z,91.33
2017-05-07T02:31:44.084Z,91.24
2017-05-07T02:31:58.521Z,91.19
2017-05-07T02:32:18.210Z,91.57
2017-05-07T02:32:31.333Z,91.62
2017-05-07T02:33:20.951Z,92.05
2017-05-07T02:33:35.983Z,91.38
2017-05-07T02:33:49.314Z,91.33
2017-05-07T02:34:02.751Z,91.38
2017-05-07T02:34:28.206Z,91.52
2017-05-07T02:35:12.573Z,91.33
2017-05-07T02:36:26.888Z,91.76
2017-05-07T02:36:42.052Z,91.57
2017-05-07T02:36:57.201Z,91.47
2017-05-07T02:37:10.101Z,91.57
2017-05-07T02:37:29.079Z,91.38
2017-05-07T02:37:48.013Z,91.19
2017-05-07T02:38:38.344Z,91.09
2017-05-07T02:38:52.237Z,91.14
2017-05-07T02:39:05.346Z,90.85
2017-05-07T02:39:19.737Z,91.14
2017-05-07T02:39:32.891Z,91.24
2017-05-07T02:39:46.107Z,90.95
2017-05-07T02:39:59.260Z,90.95
2017-05-07T02:40:13.278Z,90.66
2017-05-07T02:40:29.528Z,90.75
2017-05-07T02:41:13.855Z,90.66
2017-05-07T02:41:30.404Z,90.37
2017-05-07T02:42:14.844Z,90.37
2017-05-07T02:42:28.254Z,90.47
2017-05-07T02:42:41.414Z,90.47
2017-05-07T02:42:55.382Z,90.08
2017-05-07T02:43:08.519Z,90.37
2017-05-07T02:43:21.177Z,90.28
2017-05-07T02:43:33.841Z,90.56
2017-05-07T02:43:47.082Z,90.66
2017-05-07T02:44:01.164Z,90.56
2017-05-07T02:44:13.774Z,90.56
2017-05-07T02:44:26.899Z,90.47
2017-05-07T02:44:43.788Z,90.75
2017-05-07T02:44:58.221Z,90.75
2017-05-07T02:45:21.293Z,90.08
2017-05-07T02:45:34.487Z,90.08
2017-05-07T02:45:47.686Z,90.08
2017-05-07T02:46:00.763Z,90.18
2017-05-07T02:46:14.577Z,90.18
2017-05-07T02:46:28.042Z,89.89
2017-05-07T02:46:41.664Z,89.99
2017-05-07T02:46:56.865Z,90.18
2017-05-07T02:47:10.247Z,90.28
2017-05-07T02:47:23.463Z,90.18
2017-05-07T02:47:37.260Z,89.79
2017-05-07T02:47:51.249Z,90.08
2017-05-07T02:48:05.469Z,90.37
2017-05-07T02:48:19.454Z,89.89
2017-05-07T02:48:35.227Z,89.7
2017-05-07T02:48:48.471Z,89.51
2017-05-07T02:49:02.553Z,89.89
2017-05-07T02:49:34.944Z,89.41
2017-05-07T02:49:48.367Z,89.51
2017-05-07T02:50:04.624Z,89.51
2017-05-07T02:50:17.796Z,89.61
2017-05-07T02:50:32.205Z,89.32
2017-05-07T02:50:46.147Z,89.32
2017-05-07T02:50:59.316Z,89.22
2017-05-07T02:51:12.482Z,89.41
2017-05-07T02:51:25.219Z,89.61
2017-05-07T02:51:38.632Z,89.51
2017-05-07T02:51:51.744Z,89.41
2017-05-07T02:52:04.381Z,89.41
2017-05-07T02:52:18.057Z,89.61
2017-05-07T02:52:31.224Z,89.7
2017-05-07T02:52:44.399Z,89.51
2017-05-07T02:53:07.486Z,89.12
2017-05-07T02:53:20.659Z,89.03
2017-05-07T02:53:33.301Z,89.32
2017-05-07T02:53:46.665Z,89.32
2017-05-07T02:53:59.856Z,89.22
2017-05-07T02:54:11.971Z,89.03
2017-05-07T02:54:25.097Z,89.03
2017-05-07T02:54:38.317Z,89.22
2017-05-07T02:54:52.930Z,89.12
2017-05-07T02:55:05.627Z,89.03
2017-05-07T02:55:18.810Z,89.22
2017-05-07T02:55:32.044Z,89.22
2017-05-07T02:55:45.238Z,89.12
2017-05-07T02:55:58.681Z,89.03
2017-05-07T02:56:10.849Z,88.93
2017-05-07T02:56:23.962Z,89.12
2017-05-07T02:56:37.051Z,89.12
2017-05-07T02:56:50.217Z,88.84
2017-05-07T02:57:03.388Z,89.03
2017-05-07T02:57:17.849Z,88.93
2017-05-07T02:57:30.992Z,89.12
2017-05-07T02:57:51.709Z,88.93
2017-05-07T02:58:04.939Z,88.84
2017-05-07T02:58:18.073Z,89.03
2017-05-07T02:58:31.335Z,89.12
2017-05-07T02:58:44.076Z,89.03
2017-05-07T02:58:57.226Z,88.84
2017-05-07T02:59:09.827Z,88.84
2017-05-07T02:59:22.955Z,88.84
2017-05-07T02:59:35.623Z,89.03
2017-05-07T02:59:48.743Z,89.03
2017-05-07T03:00:01.880Z,89.22
2017-05-07T03:00:14.532Z,89.03
2017-05-07T03:00:27.703Z,88.93
2017-05-07T03:00:40.874Z,88.93
2017-05-07T03:00:54.503Z,88.84
2017-05-07T03:01:07.948Z,89.22
2017-05-07T03:01:21.450Z,88.93
2017-05-07T03:01:34.160Z,89.12
2017-05-07T03:01:47.408Z,88.93
2017-05-07T03:02:19.807Z,89.03
2017-05-07T03:02:45.411Z,88.93
2017-05-07T03:02:59.613Z,89.03
2017-05-07T03:03:12.813Z,89.03
2017-05-07T03:03:25.976Z,88.84
2017-05-07T03:03:38.166Z,89.03
2017-05-07T03:03:51.327Z,89.12
2017-05-07T03:04:04.456Z,89.03
2017-05-07T03:04:17.096Z,89.12
2017-05-07T03:04:30.344Z,89.03
2017-05-07T03:04:43.417Z,89.22
2017-05-07T03:04:56.540Z,88.93
2017-05-07T03:05:09.648Z,88.93
2017-05-07T03:05:22.243Z,89.22
2017-05-07T03:05:34.848Z,89.7
2017-05-07T03:05:47.941Z,89.41
2017-05-07T03:06:01.094Z,89.32
2017-05-07T03:06:14.476Z,89.61
2017-05-07T03:06:27.669Z,89.7
2017-05-07T03:06:40.856Z,89.12
2017-05-07T03:06:54.042Z,89.41
2017-05-07T03:07:07.267Z,89.32
2017-05-07T03:07:20.409Z,89.32
2017-05-07T03:07:33.615Z,89.61
2017-05-07T03:07:45.826Z,89.32
2017-05-07T03:07:58.962Z,89.41
2017-05-07T03:08:11.617Z,89.61
2017-05-07T03:08:24.235Z,89.7
2017-05-07T03:08:37.336Z,89.32
2017-05-07T03:08:50.688Z,89.36
2017-05-07T03:09:03.808Z,89.46
2017-05-07T03:09:16.954Z,89.61
2017-05-07T03:09:29.665Z,89.65
2017-05-07T03:09:41.788Z,89.61
2017-05-07T03:09:54.961Z,89.61
2017-05-07T03:10:08.130Z,89.41
2017-05-07T03:10:21.463Z,89.7
2017-05-07T03:10:34.577Z,89.41
2017-05-07T03:10:47.728Z,89.7
2017-05-07T03:11:00.880Z,89.61
2017-05-07T03:11:13.930Z,89.61
2017-05-07T03:11:27.041Z,89.7
2017-05-07T03:11:39.677Z,89.61
2017-05-07T03:11:52.804Z,89.12
2017-05-07T03:12:05.994Z,89.51
2017-05-07T03:12:19.157Z,89.61
2017-05-07T03:12:32.285Z,89.51
2017-05-07T03:12:45.420Z,89.7
2017-05-07T03:12:58.577Z,89.32
2017-05-07T03:13:11.682Z,89.03
2017-05-07T03:13:24.316Z,89.61
2017-05-07T03:13:37.462Z,89.61
2017-05-07T03:13:50.634Z,89.22
2017-05-07T03:14:03.833Z,89.22
2017-05-07T03:14:15.957Z,88.93
2017-05-07T03:14:29.078Z,89.03
2017-05-07T03:14:42.184Z,89.12
2017-05-07T03:14:55.414Z,89.12
2017-05-07T03:15:08.618Z,89.22
2017-05-07T03:15:21.254Z,89.22
2017-05-07T03:15:34.368Z,89.22
2017-05-07T03:15:47.512Z,89.03
2017-05-07T03:16:00.715Z,89.03
2017-05-07T03:16:13.336Z,89.12
2017-05-07T03:16:26.686Z,88.84
2017-05-07T03:16:39.673Z,88.84
2017-05-07T03:16:52.851Z,89.03
2017-05-07T03:17:18.628Z,88.93
2017-05-07T03:17:32.426Z,88.84
2017-05-07T03:17:45.586Z,89.12
2017-05-07T03:17:58.944Z,89.22
2017-05-07T03:18:11.607Z,89.03
2017-05-07T03:18:24.715Z,89.03
2017-05-07T03:18:37.863Z,88.93
2017-05-07T03:18:51.015Z,89.22
2017-05-07T03:19:04.219Z,89.03
2017-05-07T03:19:17.470Z,89.03
2017-05-07T03:19:31.830Z,89.22
2017-05-07T03:19:44.941Z,89.22
2017-05-07T03:19:58.098Z,89.03
2017-05-07T03:20:11.274Z,88.74
2017-05-07T03:20:23.962Z,89.03
2017-05-07T03:20:37.195Z,89.03
2017-05-07T03:20:50.331Z,89.03
2017-05-07T03:21:02.934Z,88.93
2017-05-07T03:21:15.598Z,88.93
2017-05-07T03:21:28.787Z,89.22
2017-05-07T03:21:41.998Z,88.93
2017-05-07T03:21:54.615Z,88.93
2017-05-07T03:22:07.279Z,89.22
2017-05-07T03:22:20.475Z,88.84
2017-05-07T03:22:32.651Z,88.93
2017-05-07T03:22:45.311Z,88.65
2017-05-07T03:22:58.472Z,89.32
2017-05-07T03:23:11.579Z,89.22
2017-05-07T03:23:24.192Z,89.03
2017-05-07T03:23:37.320Z,89.03
2017-05-07T03:23:50.710Z,89.03
2017-05-07T03:24:03.898Z,89.03
2017-05-07T03:24:17.033Z,89.03
2017-05-07T03:24:30.202Z,88.93
2017-05-07T03:24:43.357Z,89.03
2017-05-07T03:24:56.485Z,89.03
2017-05-07T03:25:09.593Z,89.22
2017-05-07T03:25:22.244Z,89.03
2017-05-07T03:25:35.387Z,89.22
2017-05-07T03:25:48.520Z,89.03
2017-05-07T03:26:01.717Z,89.12
2017-05-07T03:26:14.844Z,89.03
2017-05-07T03:26:27.990Z,89.22
2017-05-07T03:26:40.572Z,88.93
2017-05-07T03:26:53.755Z,88.84
2017-05-07T03:27:07.116Z,88.93
2017-05-07T03:27:20.403Z,88.93
2017-05-07T03:27:33.675Z,89.03
2017-05-07T03:27:46.807Z,89.03
2017-05-07T03:27:59.957Z,88.84
2017-05-07T03:28:12.084Z,89.03
2017-05-07T03:28:24.729Z,88.93
2017-05-07T03:28:37.907Z,89.12
2017-05-07T03:28:51.043Z,89.12
2017-05-07T03:29:04.175Z,89.03
2017-05-07T03:29:17.572Z,88.93
2017-05-07T03:29:30.237Z,88.84
2017-05-07T03:29:43.409Z,89.03
2017-05-07T03:29:56.612Z,88.93
2017-05-07T03:30:09.739Z,88.93
2017-05-07T03:30:21.872Z,88.93
2017-05-07T03:30:34.977Z,89.22
2017-05-07T03:30:48.184Z,89.03
2017-05-07T03:31:01.375Z,89.22
2017-05-07T03:31:14.000Z,89.22
2017-05-07T03:31:27.189Z,88.93
2017-05-07T03:31:40.321Z,89.03
2017-05-07T03:31:53.467Z,88.84
2017-05-07T03:32:06.575Z,89.03
2017-05-07T03:32:19.197Z,89.12
2017-05-07T03:32:32.297Z,89.03
2017-05-07T03:32:44.997Z,89.75
2017-05-07T03:32:58.172Z,89.32
2017-05-07T03:33:11.292Z,89.41
2017-05-07T03:33:24.454Z,89.51
2017-05-07T03:33:37.568Z,90.08
2017-05-07T03:33:50.706Z,89.89
2017-05-07T03:34:03.795Z,89.89
2017-05-07T03:34:16.467Z,89.7
2017-05-07T03:34:29.146Z,90.18
2017-05-07T03:34:42.325Z,89.89
2017-05-07T03:34:55.496Z,89.79
2017-05-07T03:35:08.119Z,89.7
2017-05-07T03:35:20.793Z,89.89
2017-05-07T03:35:33.962Z,90.08
2017-05-07T03:35:47.102Z,89.89
2017-05-07T03:35:59.735Z,89.79
2017-05-07T03:36:12.928Z,89.61
2017-05-07T03:36:26.069Z,89.89
2017-05-07T03:36:39.194Z,89.7
2017-05-07T03:36:51.750Z,89.7
2017-05-07T03:37:04.872Z,89.99
2017-05-07T03:37:18.012Z,89.61
2017-05-07T03:37:31.085Z,90.08
2017-05-07T03:37:44.217Z,90.18
2017-05-07T03:37:57.422Z,89.89
2017-05-07T03:38:10.627Z,89.7
2017-05-07T03:38:23.805Z,89.89
2017-05-07T03:38:36.967Z,90.18
2017-05-07T03:38:50.066Z,90.08
2017-05-07T03:39:03.426Z,90.08
2017-05-07T03:39:16.543Z,89.7
2017-05-07T03:39:29.621Z,89.7
2017-05-07T03:39:42.266Z,89.89
2017-05-07T03:39:55.448Z,90.22
2017-05-07T03:40:08.570Z,90.18
2017-05-07T03:40:20.718Z,90.28
2017-05-07T03:40:33.352Z,90.37
2017-05-07T03:40:46.471Z,90.18
2017-05-07T03:40:59.597Z,89.7
2017-05-07T03:41:12.214Z,89.79
2017-05-07T03:41:25.312Z,89.79
2017-05-07T03:41:38.454Z,89.7
2017-05-07T03:41:51.609Z,89.79
2017-05-07T03:42:04.684Z,89.41
2017-05-07T03:42:17.819Z,89.61
2017-05-07T03:42:30.401Z,89.32
2017-05-07T03:42:43.501Z,89.61
2017-05-07T03:42:56.613Z,89.32
2017-05-07T03:43:09.257Z,89.22
2017-05-07T03:43:22.393Z,89.32
2017-05-07T03:43:35.542Z,89.32
2017-05-07T03:43:48.634Z,89.7
2017-05-07T03:44:01.856Z,89.61
2017-05-07T03:44:14.482Z,89.03
2017-05-07T03:44:27.589Z,89.22
2017-05-07T03:44:40.807Z,89.03
2017-05-07T03:44:53.897Z,89.03
2017-05-07T03:45:07.003Z,89.03
2017-05-07T03:45:20.100Z,89.03
2017-05-07T03:45:33.259Z,89.22
2017-05-07T03:45:46.391Z,89.22